PWSweather.com
Personal Weather Stations
Station Observations
KETX01
Ketx, PatraGR 26331

KetxPatraGR 26331

Lat: 38.238889, Lon: 21.751111

Elevation: 56

Station Type: Davis Instruments / Vantage Pro2 Plus

http://meteopatras.eu

Latest ConditionsUpdated 3:05:01 PM GMT+02:02 Sunday, Nov 18, 2018
Currently Today's Max Today's Min Today's Average
Temperature 57.2°F14.0°C 65.1°F18.4°C 54.4°F12.4°C 58.2°F14.6°C
Dew Point 51.8°F11.0°C 52.8°F11.6°C 43.2°F6.2°C 46.7°F8.2°C
Winds 8.1 mph N13.0 kmh N 16.1 mph -25.9 kmh - - 5.6 mph 9.0 kmh
Wind Gusts 11.5 mph18.5 kmh 26.5 mph42.6 kmh - -
Humidity 82% 84% 51% 66%
Pressure 29.75 in1007.5 mb 29.98 in1015.2 mb 29.74 in1007.1 mb -
Precipitation - 0.34 in8.6 mm - -
Hour Temp Dew Point Humidity Winds Wind Gusts Pressure Precip Precip Rate Daily Precip Total
03:05 PM 57.2°F14.0°C 51.8°F11.0°C 82% 8.1 mph N13.0 kmh N 11.5 mph18.5 kmh 29.75 in1007.5 mb - 0.10 in2.5 mm 0.34 in8.6 mm
03:00 PM 57.6°F14.2°C 52.8°F11.6°C 84% 2.3 mph NE3.7 kmh NE 3.5 mph5.6 kmh 29.75 in1007.5 mb - 0.11 in2.8 mm 0.34 in8.6 mm
02:55 PM 57.5°F14.2°C 52.0°F11.1°C 82% 4.6 mph NW7.4 kmh NW 4.6 mph7.4 kmh 29.76 in1007.8 mb - 0.10 in2.5 mm 0.33 in8.4 mm
02:50 PM 57.7°F14.3°C 52.6°F11.4°C 83% 1.2 mph N1.9 kmh N 2.3 mph3.7 kmh 29.76 in1007.8 mb - 0.10 in2.5 mm 0.32 in8.1 mm
02:45 PM 58.0°F14.4°C 52.2°F11.2°C 81% 3.5 mph NNW5.6 kmh NNW 4.6 mph7.4 kmh 29.75 in1007.5 mb - 0.09 in2.3 mm 0.31 in7.9 mm
02:40 PM 58.1°F14.5°C 51.6°F10.9°C 79% 2.3 mph S3.7 kmh S 3.5 mph5.6 kmh 29.75 in1007.5 mb - 0.08 in2.0 mm 0.30 in7.6 mm
02:35 PM 58.0°F14.4°C 51.2°F10.7°C 78% 1.2 mph WNW1.9 kmh WNW 2.3 mph3.7 kmh 29.75 in1007.5 mb - 0.08 in2.0 mm 0.29 in7.4 mm
02:30 PM 57.6°F14.2°C 51.4°F10.8°C 80% 8.1 mph NNW13.0 kmh NNW 12.7 mph20.4 kmh 29.74 in1007.1 mb - 0.08 in2.0 mm 0.28 in7.1 mm
02:25 PM 57.5°F14.2°C 52.0°F11.1°C 82% 2.3 mph N3.7 kmh N 3.5 mph5.6 kmh 29.75 in1007.5 mb - 0.08 in2.0 mm 0.27 in6.9 mm
02:20 PM 57.7°F14.3°C 51.6°F10.9°C 80% 3.5 mph NE5.6 kmh NE 4.6 mph7.4 kmh 29.75 in1007.5 mb - 0.07 in1.8 mm 0.26 in6.6 mm
02:15 PM 58.0°F14.4°C 51.9°F11.1°C 80% 3.5 mph NNW5.6 kmh NNW 3.5 mph5.6 kmh 29.75 in1007.5 mb - 0.07 in1.8 mm 0.25 in6.4 mm
02:10 PM 58.5°F14.7°C 52.3°F11.3°C 80% Calm Calm -- 29.76 in1007.8 mb - 0.08 in2.0 mm 0.25 in6.4 mm
02:05 PM 58.8°F14.9°C 52.3°F11.3°C 79% 1.2 mph ESE1.9 kmh ESE 1.2 mph1.9 kmh 29.76 in1007.8 mb - 0.07 in1.8 mm 0.24 in6.1 mm
02:00 PM 59.2°F15.1°C 51.6°F10.9°C 76% 4.6 mph E7.4 kmh E 5.8 mph9.3 kmh 29.75 in1007.5 mb - 0.08 in2.0 mm 0.23 in5.8 mm
01:55 PM 59.7°F15.4°C 51.4°F10.8°C 74% 2.3 mph N3.7 kmh N 5.8 mph9.3 kmh 29.75 in1007.5 mb - 0.09 in2.3 mm 0.23 in5.8 mm
01:50 PM 59.4°F15.2°C 51.1°F10.6°C 74% 8.1 mph N13.0 kmh N 11.5 mph18.5 kmh 29.75 in1007.5 mb - 0.10 in2.5 mm 0.23 in5.8 mm
01:45 PM 59.1°F15.1°C 51.5°F10.8°C 76% 4.6 mph N7.4 kmh N 4.6 mph7.4 kmh 29.76 in1007.8 mb - 0.11 in2.8 mm 0.22 in5.6 mm
01:40 PM 58.7°F14.8°C 51.8°F11.0°C 78% 2.3 mph NE3.7 kmh NE 8.1 mph13.0 kmh 29.76 in1007.8 mb - 0.11 in2.8 mm 0.22 in5.6 mm
01:35 PM 58.2°F14.6°C 51.3°F10.7°C 78% 6.9 mph N11.1 kmh N 10.4 mph16.7 kmh 29.76 in1007.8 mb - 0.12 in3.0 mm 0.21 in5.3 mm
01:30 PM 58.0°F14.4°C 51.9°F11.1°C 80% 2.3 mph E3.7 kmh E 3.5 mph5.6 kmh 29.77 in1008.1 mb - 0.13 in3.3 mm 0.21 in5.3 mm
01:25 PM 57.7°F14.3°C 51.2°F10.7°C 79% 3.5 mph N5.6 kmh N 4.6 mph7.4 kmh 29.77 in1008.1 mb - 0.13 in3.3 mm 0.20 in5.1 mm
01:20 PM 57.6°F14.2°C 51.8°F11.0°C 81% 6.9 mph NW11.1 kmh NW 9.2 mph14.8 kmh 29.77 in1008.1 mb - 0.12 in3.0 mm 0.19 in4.8 mm
01:15 PM 57.9°F14.4°C 51.8°F11.0°C 80% 2.3 mph W3.7 kmh W 3.5 mph5.6 kmh 29.78 in1008.5 mb - 0.12 in3.0 mm 0.18 in4.6 mm
01:10 PM 57.9°F14.4°C 51.8°F11.0°C 80% 2.3 mph SE3.7 kmh SE 3.5 mph5.6 kmh 29.79 in1008.8 mb - 0.12 in3.0 mm 0.17 in4.3 mm
01:05 PM 58.1°F14.5°C 51.3°F10.7°C 78% 3.5 mph NNE5.6 kmh NNE 4.6 mph7.4 kmh 29.78 in1008.5 mb - 0.12 in3.0 mm 0.17 in4.3 mm
01:00 PM 58.4°F14.7°C 50.5°F10.3°C 75% 3.5 mph NE5.6 kmh NE 3.5 mph5.6 kmh 29.78 in1008.5 mb - 0.10 in2.5 mm 0.15 in3.8 mm
12:55 PM 58.5°F14.7°C 49.9°F9.9°C 73% 6.9 mph N11.1 kmh N 10.4 mph16.7 kmh 29.78 in1008.5 mb - 0.09 in2.3 mm 0.14 in3.6 mm
12:50 PM 58.2°F14.6°C 50.0°F10.0°C 74% 8.1 mph NW13.0 kmh NW 9.2 mph14.8 kmh 29.79 in1008.8 mb - 0.08 in2.0 mm 0.13 in3.3 mm
12:45 PM 58.7°F14.8°C 50.1°F10.1°C 73% 3.5 mph NNW5.6 kmh NNW 3.5 mph5.6 kmh 29.79 in1008.8 mb - 0.07 in1.8 mm 0.12 in3.0 mm
12:40 PM 59.1°F15.1°C 50.1°F10.1°C 72% 1.2 mph W1.9 kmh W 2.3 mph3.7 kmh 29.80 in1009.1 mb - 0.06 in1.5 mm 0.11 in2.8 mm
12:35 PM 59.7°F15.4°C 50.3°F10.2°C 71% 1.2 mph ESE1.9 kmh ESE 3.5 mph5.6 kmh 29.80 in1009.1 mb - 0.04 in1.0 mm 0.09 in2.3 mm
12:30 PM 61.0°F16.1°C 49.6°F9.8°C 66% 3.5 mph SSW5.6 kmh SSW 4.6 mph7.4 kmh 29.80 in1009.1 mb - 0.03 in0.8 mm 0.08 in2.0 mm
12:25 PM 62.9°F17.2°C 49.2°F9.6°C 61% 3.5 mph WNW5.6 kmh WNW 5.8 mph9.3 kmh 29.80 in1009.1 mb - 0.02 in0.5 mm 0.07 in1.8 mm
12:20 PM 63.9°F17.7°C 49.3°F9.6°C 59% 3.5 mph SW5.6 kmh SW 4.6 mph7.4 kmh 29.80 in1009.1 mb - 0.02 in0.5 mm 0.07 in1.8 mm
12:15 PM 64.3°F17.9°C 48.3°F9.1°C 56% 5.8 mph SE9.3 kmh SE 8.1 mph13.0 kmh 29.80 in1009.1 mb - 0.01 in0.3 mm 0.06 in1.5 mm
12:10 PM 64.5°F18.1°C 48.5°F9.2°C 56% 6.9 mph ESE11.1 kmh ESE 10.4 mph16.7 kmh 29.80 in1009.1 mb - 0.00 in0.0 mm 0.05 in1.3 mm
12:05 PM 64.9°F18.3°C 47.8°F8.8°C 54% 5.8 mph ENE9.3 kmh ENE 10.4 mph16.7 kmh 29.79 in1008.8 mb - 0.00 in0.0 mm 0.05 in1.3 mm
12:00 PM 65.0°F18.3°C 47.4°F8.6°C 53% 5.8 mph ESE9.3 kmh ESE 16.1 mph25.9 kmh 29.79 in1008.8 mb - 0.00 in0.0 mm 0.05 in1.3 mm
11:55 AM 65.1°F18.4°C 47.0°F8.3°C 52% 8.1 mph SSW13.0 kmh SSW 17.3 mph27.8 kmh 29.79 in1008.8 mb - 0.00 in0.0 mm 0.05 in1.3 mm
11:50 AM 64.9°F18.3°C 46.8°F8.2°C 52% 6.9 mph SE11.1 kmh SE 11.5 mph18.5 kmh 29.79 in1008.8 mb - 0.00 in0.0 mm 0.05 in1.3 mm
11:45 AM 64.4°F18.0°C 47.3°F8.5°C 54% 10.4 mph SSE16.7 kmh SSE 18.4 mph29.6 kmh 29.79 in1008.8 mb - 0.00 in0.0 mm 0.05 in1.3 mm
11:40 AM 63.1°F17.3°C 46.7°F8.2°C 55% 4.6 mph E7.4 kmh E 10.4 mph16.7 kmh 29.79 in1008.8 mb - 0.00 in0.0 mm 0.05 in1.3 mm
11:35 AM 62.0°F16.7°C 46.6°F8.1°C 57% 4.6 mph SE7.4 kmh SE 9.2 mph14.8 kmh 29.78 in1008.5 mb - 0.00 in0.0 mm 0.05 in1.3 mm
11:30 AM 60.6°F15.9°C 46.7°F8.2°C 60% 3.5 mph N5.6 kmh N 6.9 mph11.1 kmh 29.79 in1008.8 mb - 0.00 in0.0 mm 0.05 in1.3 mm
11:25 AM 61.4°F16.3°C 46.4°F8.0°C 58% 8.1 mph WSW13.0 kmh WSW 10.4 mph16.7 kmh 29.79 in1008.8 mb - 0.00 in0.0 mm 0.05 in1.3 mm
11:20 AM 62.6°F17.0°C 46.7°F8.2°C 56% 11.5 mph NW18.5 kmh NW 13.8 mph22.2 kmh 29.79 in1008.8 mb - 0.00 in0.0 mm 0.05 in1.3 mm
11:15 AM 63.1°F17.3°C 46.7°F8.2°C 55% 3.5 mph W5.6 kmh W 6.9 mph11.1 kmh 29.79 in1008.8 mb - 0.00 in0.0 mm 0.05 in1.3 mm
11:10 AM 62.5°F16.9°C 47.1°F8.4°C 57% 5.8 mph ESE9.3 kmh ESE 6.9 mph11.1 kmh 29.80 in1009.1 mb - 0.00 in0.0 mm 0.05 in1.3 mm
11:05 AM 61.6°F16.4°C 46.6°F8.1°C 58% 4.6 mph SSW7.4 kmh SSW 9.2 mph14.8 kmh 29.80 in1009.1 mb - 0.00 in0.0 mm 0.05 in1.3 mm
11:00 AM 61.2°F16.2°C 46.3°F7.9°C 58% 4.6 mph NW7.4 kmh NW 4.6 mph7.4 kmh 29.81 in1009.5 mb - 0.00 in0.0 mm 0.05 in1.3 mm
10:55 AM 60.3°F15.7°C 46.3°F7.9°C 60% 9.2 mph NE14.8 kmh NE 11.5 mph18.5 kmh 29.81 in1009.5 mb - 0.00 in0.0 mm 0.05 in1.3 mm
10:50 AM 59.8°F15.4°C 47.2°F8.4°C 63% 3.5 mph W5.6 kmh W 6.9 mph11.1 kmh 29.82 in1009.8 mb - 0.00 in0.0 mm 0.05 in1.3 mm
10:45 AM 59.7°F15.4°C 46.7°F8.2°C 62% 8.1 mph W13.0 kmh W 11.5 mph18.5 kmh 29.82 in1009.8 mb - 0.00 in0.0 mm 0.05 in1.3 mm
10:40 AM 59.9°F15.5°C 46.8°F8.2°C 62% 6.9 mph N11.1 kmh N 11.5 mph18.5 kmh 29.83 in1010.2 mb - 0.00 in0.0 mm 0.05 in1.3 mm
10:35 AM 60.4°F15.8°C 46.5°F8.1°C 60% 8.1 mph ESE13.0 kmh ESE 12.7 mph20.4 kmh 29.83 in1010.2 mb - 0.00 in0.0 mm 0.05 in1.3 mm
10:30 AM 61.2°F16.2°C 46.3°F7.9°C 58% 6.9 mph ESE11.1 kmh ESE 11.5 mph18.5 kmh 29.84 in1010.5 mb - 0.00 in0.0 mm 0.05 in1.3 mm
10:25 AM 62.2°F16.8°C 45.8°F7.7°C 55% 9.2 mph ESE14.8 kmh ESE 11.5 mph18.5 kmh 29.84 in1010.5 mb - 0.00 in0.0 mm 0.05 in1.3 mm
10:15 AM 64.5°F18.1°C 46.5°F8.1°C 52% 3.5 mph E5.6 kmh E 3.5 mph5.6 kmh 29.83 in1010.2 mb - 0.00 in0.0 mm 0.05 in1.3 mm
10:10 AM 64.9°F18.3°C 46.3°F7.9°C 51% 3.5 mph SSW5.6 kmh SSW 10.4 mph16.7 kmh 29.82 in1009.8 mb - 0.00 in0.0 mm 0.05 in1.3 mm
10:05 AM 64.6°F18.1°C 46.1°F7.8°C 51% 3.5 mph S5.6 kmh S 4.6 mph7.4 kmh 29.81 in1009.5 mb - 0.00 in0.0 mm 0.05 in1.3 mm
10:00 AM 63.5°F17.5°C 46.0°F7.8°C 53% 9.2 mph SE14.8 kmh SE 16.1 mph25.9 kmh 29.81 in1009.5 mb - 0.00 in0.0 mm 0.05 in1.3 mm
09:55 AM 62.3°F16.8°C 46.4°F8.0°C 56% 4.6 mph E7.4 kmh E 15.0 mph24.1 kmh 29.81 in1009.5 mb - 0.00 in0.0 mm 0.05 in1.3 mm
09:50 AM 61.7°F16.5°C 45.8°F7.7°C 56% 5.8 mph SE9.3 kmh SE 9.2 mph14.8 kmh 29.81 in1009.5 mb - 0.01 in0.3 mm 0.05 in1.3 mm
09:45 AM 60.3°F15.7°C 46.8°F8.2°C 61% 3.5 mph WNW5.6 kmh WNW 9.2 mph14.8 kmh 29.81 in1009.5 mb - 0.01 in0.3 mm 0.05 in1.3 mm
09:40 AM 58.9°F14.9°C 46.3°F7.9°C 63% 5.8 mph S9.3 kmh S 11.5 mph18.5 kmh 29.82 in1009.8 mb - 0.01 in0.3 mm 0.05 in1.3 mm
09:35 AM 58.4°F14.7°C 46.3°F7.9°C 64% 5.8 mph SW9.3 kmh SW 15.0 mph24.1 kmh 29.82 in1009.8 mb - 0.01 in0.3 mm 0.05 in1.3 mm
09:30 AM 59.2°F15.1°C 45.8°F7.7°C 61% 9.2 mph WNW14.8 kmh WNW 10.4 mph16.7 kmh 29.82 in1009.8 mb - 0.01 in0.3 mm 0.05 in1.3 mm
09:25 AM 59.2°F15.1°C 46.2°F7.9°C 62% 4.6 mph N7.4 kmh N 9.2 mph14.8 kmh 29.82 in1009.8 mb - 0.01 in0.3 mm 0.05 in1.3 mm
09:20 AM 58.4°F14.7°C 45.9°F7.7°C 63% 5.8 mph SE9.3 kmh SE 9.2 mph14.8 kmh 29.84 in1010.5 mb - 0.01 in0.3 mm 0.05 in1.3 mm
09:15 AM 57.8°F14.3°C 46.5°F8.1°C 66% 3.5 mph N5.6 kmh N 5.8 mph9.3 kmh 29.84 in1010.5 mb - 0.01 in0.3 mm 0.05 in1.3 mm
09:10 AM 57.6°F14.2°C 45.5°F7.5°C 64% 2.3 mph SW3.7 kmh SW 4.6 mph7.4 kmh 29.84 in1010.5 mb - 0.01 in0.3 mm 0.05 in1.3 mm
09:05 AM 57.4°F14.1°C 45.3°F7.4°C 64% 1.2 mph WNW1.9 kmh WNW 2.3 mph3.7 kmh 29.85 in1010.8 mb - 0.01 in0.3 mm 0.05 in1.3 mm
09:00 AM 57.2°F14.0°C 45.9°F7.7°C 66% 3.5 mph ESE5.6 kmh ESE 9.2 mph14.8 kmh 29.86 in1011.2 mb - 0.01 in0.3 mm 0.05 in1.3 mm
08:55 AM 56.9°F13.8°C 45.7°F7.6°C 66% 5.8 mph NNE9.3 kmh NNE 8.1 mph13.0 kmh 29.85 in1010.8 mb - 0.02 in0.5 mm 0.05 in1.3 mm
08:50 AM 57.3°F14.1°C 46.0°F7.8°C 66% 6.9 mph NNW11.1 kmh NNW 13.8 mph22.2 kmh 29.85 in1010.8 mb - 0.01 in0.3 mm 0.04 in1.0 mm
08:45 AM 57.7°F14.3°C 45.6°F7.6°C 64% 3.5 mph NE5.6 kmh NE 8.1 mph13.0 kmh 29.84 in1010.5 mb - 0.01 in0.3 mm 0.04 in1.0 mm
08:40 AM 57.8°F14.3°C 45.7°F7.6°C 64% 4.6 mph NNE7.4 kmh NNE 10.4 mph16.7 kmh 29.84 in1010.5 mb - 0.01 in0.3 mm 0.04 in1.0 mm
08:35 AM 57.5°F14.2°C 45.4°F7.4°C 64% 5.8 mph NE9.3 kmh NE 9.2 mph14.8 kmh 29.84 in1010.5 mb - 0.01 in0.3 mm 0.04 in1.0 mm
08:30 AM 56.6°F13.7°C 45.0°F7.2°C 65% 4.6 mph NW7.4 kmh NW 10.4 mph16.7 kmh 29.84 in1010.5 mb - 0.01 in0.3 mm 0.04 in1.0 mm
08:25 AM 56.9°F13.8°C 45.7°F7.6°C 66% 6.9 mph NNE11.1 kmh NNE 15.0 mph24.1 kmh 29.83 in1010.2 mb - 0.01 in0.3 mm 0.04 in1.0 mm
08:20 AM 57.4°F14.1°C 45.3°F7.4°C 64% 5.8 mph NNW9.3 kmh NNW 11.5 mph18.5 kmh 29.82 in1009.8 mb - 0.01 in0.3 mm 0.04 in1.0 mm
08:15 AM 57.8°F14.3°C 45.3°F7.4°C 63% 1.2 mph NNW1.9 kmh NNW 3.5 mph5.6 kmh 29.83 in1010.2 mb - 0.01 in0.3 mm 0.04 in1.0 mm
08:10 AM 58.0°F14.4°C 45.5°F7.5°C 63% 3.5 mph W5.6 kmh W 5.8 mph9.3 kmh 29.84 in1010.5 mb - 0.01 in0.3 mm 0.04 in1.0 mm
08:05 AM 58.2°F14.6°C 45.7°F7.6°C 63% 3.5 mph N5.6 kmh N 5.8 mph9.3 kmh 29.85 in1010.8 mb - 0.01 in0.3 mm 0.04 in1.0 mm
08:00 AM 58.8°F14.9°C 45.8°F7.7°C 62% 2.3 mph W3.7 kmh W 5.8 mph9.3 kmh 29.85 in1010.8 mb - 0.01 in0.3 mm 0.04 in1.0 mm
07:55 AM 59.8°F15.4°C 45.4°F7.4°C 59% 3.5 mph W5.6 kmh W 3.5 mph5.6 kmh 29.85 in1010.8 mb - 0.01 in0.3 mm 0.04 in1.0 mm
07:50 AM 59.8°F15.4°C 44.0°F6.7°C 56% 6.9 mph WNW11.1 kmh WNW 9.2 mph14.8 kmh 29.85 in1010.8 mb - 0.00 in0.0 mm 0.03 in0.8 mm
07:45 AM 58.9°F14.9°C 44.1°F6.7°C 58% 4.6 mph NNE7.4 kmh NNE 3.5 mph5.6 kmh 29.84 in1010.5 mb - 0.00 in0.0 mm 0.03 in0.8 mm
07:40 AM 58.3°F14.6°C 44.9°F7.2°C 61% 5.8 mph NNE9.3 kmh NNE 11.5 mph18.5 kmh 29.85 in1010.8 mb - 0.00 in0.0 mm 0.03 in0.8 mm
07:35 AM 57.7°F14.3°C 44.8°F7.1°C 62% 9.2 mph N14.8 kmh N 12.7 mph20.4 kmh 29.85 in1010.8 mb - 0.00 in0.0 mm 0.03 in0.8 mm
07:30 AM 55.7°F13.2°C 45.3°F7.4°C 68% 11.5 mph NNE18.5 kmh NNE 18.4 mph29.6 kmh 29.84 in1010.5 mb - 0.01 in0.3 mm 0.03 in0.8 mm
07:25 AM 56.1°F13.4°C 45.7°F7.6°C 68% 11.5 mph N18.5 kmh N 19.6 mph31.5 kmh 29.85 in1010.8 mb - 0.01 in0.3 mm 0.03 in0.8 mm
07:20 AM 55.8°F13.2°C 45.8°F7.7°C 69% 9.2 mph NNW14.8 kmh NNW 17.3 mph27.8 kmh 29.85 in1010.8 mb - 0.01 in0.3 mm 0.03 in0.8 mm
07:15 AM 55.3°F12.9°C 45.7°F7.6°C 70% 5.8 mph NW9.3 kmh NW 8.1 mph13.0 kmh 29.84 in1010.5 mb - 0.01 in0.3 mm 0.03 in0.8 mm
07:10 AM 55.0°F12.8°C 46.5°F8.1°C 73% 3.5 mph ENE5.6 kmh ENE 8.1 mph13.0 kmh 29.86 in1011.2 mb - 0.01 in0.3 mm 0.03 in0.8 mm
07:05 AM 55.1°F12.8°C 46.2°F7.9°C 72% 1.2 mph ESE1.9 kmh ESE 3.5 mph5.6 kmh 29.86 in1011.2 mb - 0.02 in0.5 mm 0.03 in0.8 mm
07:00 AM 55.3°F12.9°C 46.1°F7.8°C 71% 4.6 mph ESE7.4 kmh ESE 6.9 mph11.1 kmh 29.87 in1011.5 mb - 0.02 in0.5 mm 0.03 in0.8 mm
06:55 AM 54.7°F12.6°C 45.9°F7.7°C 72% 10.4 mph N16.7 kmh N 13.8 mph22.2 kmh 29.87 in1011.5 mb - 0.02 in0.5 mm 0.03 in0.8 mm
06:50 AM 54.5°F12.5°C 46.0°F7.8°C 73% 10.4 mph N16.7 kmh N 15.0 mph24.1 kmh 29.88 in1011.9 mb - 0.02 in0.5 mm 0.03 in0.8 mm
06:45 AM 54.6°F12.6°C 46.1°F7.8°C 73% 10.4 mph N16.7 kmh N 20.7 mph33.3 kmh 29.87 in1011.5 mb - 0.02 in0.5 mm 0.03 in0.8 mm
06:40 AM 55.2°F12.9°C 46.3°F7.9°C 72% 6.9 mph ESE11.1 kmh ESE 9.2 mph14.8 kmh 29.88 in1011.9 mb - 0.02 in0.5 mm 0.03 in0.8 mm
06:35 AM 55.4°F13.0°C 45.4°F7.4°C 69% 9.2 mph N14.8 kmh N 20.7 mph33.3 kmh 29.89 in1012.2 mb - 0.02 in0.5 mm 0.03 in0.8 mm
06:30 AM 54.8°F12.7°C 46.3°F7.9°C 73% 8.1 mph N13.0 kmh N 10.4 mph16.7 kmh 29.89 in1012.2 mb - 0.01 in0.3 mm 0.02 in0.5 mm
06:25 AM 55.4°F13.0°C 46.5°F8.1°C 72% 10.4 mph N16.7 kmh N 17.3 mph27.8 kmh 29.90 in1012.5 mb - 0.01 in0.3 mm 0.02 in0.5 mm
06:20 AM 55.9°F13.3°C 46.2°F7.9°C 70% 4.6 mph NE7.4 kmh NE 8.1 mph13.0 kmh 29.90 in1012.5 mb - 0.01 in0.3 mm 0.02 in0.5 mm
06:15 AM 55.7°F13.2°C 44.9°F7.2°C 67% 9.2 mph N14.8 kmh N 11.5 mph18.5 kmh 29.89 in1012.2 mb - 0.01 in0.3 mm 0.02 in0.5 mm
06:10 AM 55.7°F13.2°C 46.1°F7.8°C 70% 5.8 mph NE9.3 kmh NE 10.4 mph16.7 kmh 29.90 in1012.5 mb - 0.01 in0.3 mm 0.02 in0.5 mm
06:05 AM 55.9°F13.3°C 46.3°F7.9°C 70% 12.7 mph N20.4 kmh N 17.3 mph27.8 kmh 29.90 in1012.5 mb - 0.00 in0.0 mm 0.01 in0.3 mm
06:00 AM 56.4°F13.6°C 45.6°F7.6°C 67% 10.4 mph N16.7 kmh N 11.5 mph18.5 kmh 29.90 in1012.5 mb - 0.00 in0.0 mm 0.01 in0.3 mm
05:55 AM 56.8°F13.8°C 45.2°F7.3°C 65% 9.2 mph N14.8 kmh N 16.1 mph25.9 kmh 29.91 in1012.9 mb - 0.00 in0.0 mm 0.01 in0.3 mm
05:50 AM 56.0°F13.3°C 45.2°F7.3°C 67% 6.9 mph WNW11.1 kmh WNW 8.1 mph13.0 kmh 29.91 in1012.9 mb - 0.00 in0.0 mm 0.01 in0.3 mm
05:45 AM 55.5°F13.1°C 46.2°F7.9°C 71% 9.2 mph NE14.8 kmh NE 17.3 mph27.8 kmh 29.91 in1012.9 mb - 0.00 in0.0 mm 0.01 in0.3 mm
05:40 AM 55.3°F12.9°C 46.1°F7.8°C 71% 10.4 mph N16.7 kmh N 11.5 mph18.5 kmh 29.91 in1012.9 mb - 0.00 in0.0 mm 0.01 in0.3 mm
05:35 AM 55.3°F12.9°C 46.4°F8.0°C 72% 11.5 mph N18.5 kmh N 19.6 mph31.5 kmh 29.91 in1012.9 mb - 0.00 in0.0 mm 0.01 in0.3 mm
05:30 AM 54.8°F12.7°C 46.3°F7.9°C 73% 13.8 mph NNE22.2 kmh NNE 26.5 mph42.6 kmh 29.91 in1012.9 mb - 0.00 in0.0 mm 0.01 in0.3 mm
05:25 AM 54.6°F12.6°C 46.8°F8.2°C 75% 16.1 mph N25.9 kmh N 24.2 mph38.9 kmh 29.92 in1013.2 mb - 0.00 in0.0 mm 0.01 in0.3 mm
05:20 AM 54.8°F12.7°C 47.0°F8.3°C 75% 10.4 mph NE16.7 kmh NE 19.6 mph31.5 kmh 29.92 in1013.2 mb - 0.00 in0.0 mm 0.01 in0.3 mm
05:15 AM 55.3°F12.9°C 46.8°F8.2°C 73% 13.8 mph N22.2 kmh N 19.6 mph31.5 kmh 29.92 in1013.2 mb - 0.00 in0.0 mm 0.01 in0.3 mm
05:10 AM 57.4°F14.1°C 46.6°F8.1°C 67% 13.8 mph NNE22.2 kmh NNE 18.4 mph29.6 kmh 29.92 in1013.2 mb - 0.00 in0.0 mm 0.01 in0.3 mm
05:05 AM 58.6°F14.8°C 45.2°F7.3°C 61% 6.9 mph NNE11.1 kmh NNE 8.1 mph13.0 kmh 29.92 in1013.2 mb - 0.00 in0.0 mm 0.01 in0.3 mm
05:00 AM 58.2°F14.6°C 44.8°F7.1°C 61% 9.2 mph NE14.8 kmh NE 11.5 mph18.5 kmh 29.92 in1013.2 mb - 0.00 in0.0 mm 0.01 in0.3 mm
04:55 AM 58.4°F14.7°C 44.6°F7.0°C 60% 8.1 mph NE13.0 kmh NE 11.5 mph18.5 kmh 29.92 in1013.2 mb - 0.00 in0.0 mm 0.01 in0.3 mm
04:50 AM 57.5°F14.2°C 44.6°F7.0°C 62% 8.1 mph ENE13.0 kmh ENE 11.5 mph18.5 kmh 29.92 in1013.2 mb - 0.00 in0.0 mm 0.01 in0.3 mm
04:45 AM 56.6°F13.7°C 45.4°F7.4°C 66% 5.8 mph NE9.3 kmh NE 10.4 mph16.7 kmh 29.92 in1013.2 mb - 0.00 in0.0 mm 0.01 in0.3 mm
04:40 AM 56.3°F13.5°C 45.9°F7.7°C 68% 9.2 mph NNE14.8 kmh NNE 11.5 mph18.5 kmh 29.93 in1013.5 mb - 0.00 in0.0 mm 0.01 in0.3 mm
04:35 AM 56.1°F13.4°C 45.3°F7.4°C 67% 8.1 mph N13.0 kmh N 15.0 mph24.1 kmh 29.92 in1013.2 mb - 0.00 in0.0 mm 0.01 in0.3 mm
04:30 AM 55.7°F13.2°C 46.0°F7.8°C 70% 9.2 mph N14.8 kmh N 12.7 mph20.4 kmh 29.93 in1013.5 mb - 0.00 in0.0 mm 0.01 in0.3 mm
04:25 AM 56.1°F13.4°C 45.7°F7.6°C 68% 9.2 mph NE14.8 kmh NE 12.7 mph20.4 kmh 29.93 in1013.5 mb - 0.00 in0.0 mm 0.01 in0.3 mm
04:20 AM 57.4°F14.1°C 46.1°F7.8°C 66% 12.7 mph N20.4 kmh N 18.4 mph29.6 kmh 29.93 in1013.5 mb - 0.00 in0.0 mm 0.01 in0.3 mm
04:15 AM 58.1°F14.5°C 44.3°F6.8°C 60% 2.3 mph NW3.7 kmh NW 6.9 mph11.1 kmh 29.94 in1013.9 mb - 0.00 in0.0 mm 0.01 in0.3 mm
04:10 AM 58.2°F14.6°C 43.9°F6.6°C 59% 2.3 mph NW3.7 kmh NW 3.5 mph5.6 kmh 29.93 in1013.5 mb - 0.00 in0.0 mm 0.01 in0.3 mm
04:05 AM 58.1°F14.5°C 44.3°F6.8°C 60% 4.6 mph E7.4 kmh E 5.8 mph9.3 kmh 29.94 in1013.9 mb - 0.00 in0.0 mm 0.01 in0.3 mm
04:00 AM 57.7°F14.3°C 43.9°F6.6°C 60% 8.1 mph NW13.0 kmh NW 10.4 mph16.7 kmh 29.94 in1013.9 mb - 0.00 in0.0 mm 0.01 in0.3 mm
03:55 AM 57.3°F14.1°C 43.5°F6.4°C 60% 3.5 mph NNW5.6 kmh NNW 6.9 mph11.1 kmh 29.94 in1013.9 mb - 0.00 in0.0 mm 0.01 in0.3 mm
03:50 AM 57.1°F13.9°C 44.2°F6.8°C 62% 5.8 mph N9.3 kmh N 9.2 mph14.8 kmh 29.95 in1014.2 mb - 0.00 in0.0 mm 0.01 in0.3 mm
03:45 AM 57.1°F13.9°C 43.8°F6.6°C 61% 3.5 mph NNE5.6 kmh NNE 4.6 mph7.4 kmh 29.94 in1013.9 mb - 0.00 in0.0 mm 0.01 in0.3 mm
03:40 AM 57.1°F13.9°C 44.2°F6.8°C 62% 4.6 mph NNE7.4 kmh NNE 11.5 mph18.5 kmh 29.94 in1013.9 mb - 0.00 in0.0 mm 0.01 in0.3 mm
03:35 AM 57.0°F13.9°C 44.1°F6.7°C 62% 9.2 mph N14.8 kmh N 11.5 mph18.5 kmh 29.94 in1013.9 mb - 0.00 in0.0 mm 0.01 in0.3 mm
03:30 AM 57.1°F13.9°C 44.2°F6.8°C 62% 3.5 mph NE5.6 kmh NE 8.1 mph13.0 kmh 29.94 in1013.9 mb - 0.00 in0.0 mm 0.01 in0.3 mm
03:25 AM 57.1°F13.9°C 43.8°F6.6°C 61% 8.1 mph N13.0 kmh N 13.8 mph22.2 kmh 29.95 in1014.2 mb - 0.00 in0.0 mm 0.01 in0.3 mm
03:20 AM 57.0°F13.9°C 44.1°F6.7°C 62% 3.5 mph NW5.6 kmh NW 6.9 mph11.1 kmh 29.95 in1014.2 mb - 0.00 in0.0 mm 0.01 in0.3 mm
03:15 AM 57.4°F14.1°C 44.5°F6.9°C 62% 8.1 mph NNW13.0 kmh NNW 11.5 mph18.5 kmh 29.95 in1014.2 mb - 0.00 in0.0 mm 0.01 in0.3 mm
03:10 AM 57.6°F14.2°C 44.2°F6.8°C 61% 1.2 mph WNW1.9 kmh WNW 3.5 mph5.6 kmh 29.95 in1014.2 mb - 0.00 in0.0 mm 0.01 in0.3 mm
03:05 AM 57.8°F14.3°C 44.0°F6.7°C 60% 4.6 mph NW7.4 kmh NW 5.8 mph9.3 kmh 29.95 in1014.2 mb - 0.00 in0.0 mm 0.01 in0.3 mm
03:00 AM 58.0°F14.4°C 44.1°F6.7°C 60% 5.8 mph N9.3 kmh N 10.4 mph16.7 kmh 29.96 in1014.6 mb - 0.00 in0.0 mm 0.01 in0.3 mm
02:55 AM 58.2°F14.6°C 43.9°F6.6°C 59% 6.9 mph N11.1 kmh N 11.5 mph18.5 kmh 29.95 in1014.2 mb - 0.00 in0.0 mm 0.01 in0.3 mm
02:50 AM 57.9°F14.4°C 43.2°F6.2°C 58% 4.6 mph WSW7.4 kmh WSW 5.8 mph9.3 kmh 29.95 in1014.2 mb - 0.00 in0.0 mm 0.01 in0.3 mm
02:45 AM 57.8°F14.3°C 44.0°F6.7°C 60% 3.5 mph W5.6 kmh W 8.1 mph13.0 kmh 29.95 in1014.2 mb - 0.00 in0.0 mm 0.01 in0.3 mm
02:40 AM 58.0°F14.4°C 43.7°F6.5°C 59% 3.5 mph W5.6 kmh W 3.5 mph5.6 kmh 29.96 in1014.6 mb - 0.00 in0.0 mm 0.01 in0.3 mm
02:35 AM 57.9°F14.4°C 43.6°F6.4°C 59% 4.6 mph S7.4 kmh S 6.9 mph11.1 kmh 29.96 in1014.6 mb - 0.00 in0.0 mm 0.01 in0.3 mm
02:30 AM 57.5°F14.2°C 44.2°F6.8°C 61% 3.5 mph WNW5.6 kmh WNW 9.2 mph14.8 kmh 29.96 in1014.6 mb - 0.00 in0.0 mm 0.01 in0.3 mm
02:25 AM 57.2°F14.0°C 44.7°F7.1°C 63% 6.9 mph NNW11.1 kmh NNW 9.2 mph14.8 kmh 29.96 in1014.6 mb - 0.00 in0.0 mm 0.01 in0.3 mm
02:20 AM 57.3°F14.1°C 44.8°F7.1°C 63% 5.8 mph N9.3 kmh N 5.8 mph9.3 kmh 29.96 in1014.6 mb - 0.00 in0.0 mm 0.01 in0.3 mm
02:15 AM 57.1°F13.9°C 44.6°F7.0°C 63% 6.9 mph NE11.1 kmh NE 8.1 mph13.0 kmh 29.96 in1014.6 mb - 0.00 in0.0 mm 0.01 in0.3 mm
02:10 AM 57.1°F13.9°C 44.2°F6.8°C 62% 6.9 mph N11.1 kmh N 9.2 mph14.8 kmh 29.96 in1014.6 mb - 0.00 in0.0 mm 0.01 in0.3 mm
02:05 AM 57.1°F13.9°C 44.6°F7.0°C 63% 9.2 mph N14.8 kmh N 12.7 mph20.4 kmh 29.96 in1014.6 mb - 0.00 in0.0 mm 0.01 in0.3 mm
02:00 AM 57.1°F13.9°C 44.6°F7.0°C 63% 3.5 mph N5.6 kmh N 8.1 mph13.0 kmh 29.96 in1014.6 mb - 0.00 in0.0 mm 0.01 in0.3 mm
01:55 AM 57.6°F14.2°C 44.7°F7.1°C 62% 2.3 mph N3.7 kmh N 3.5 mph5.6 kmh 29.97 in1014.9 mb - 0.00 in0.0 mm 0.01 in0.3 mm
01:50 AM 57.9°F14.4°C 44.5°F6.9°C 61% 2.3 mph SE3.7 kmh SE 2.3 mph3.7 kmh 29.97 in1014.9 mb - 0.00 in0.0 mm 0.01 in0.3 mm
01:45 AM 57.9°F14.4°C 44.1°F6.7°C 60% 2.3 mph ENE3.7 kmh ENE 5.8 mph9.3 kmh 29.96 in1014.6 mb - 0.00 in0.0 mm 0.01 in0.3 mm
01:40 AM 58.2°F14.6°C 44.9°F7.2°C 61% 3.5 mph NW5.6 kmh NW 9.2 mph14.8 kmh 29.96 in1014.6 mb - 0.00 in0.0 mm 0.01 in0.3 mm
01:35 AM 58.5°F14.7°C 44.3°F6.8°C 59% 5.8 mph NW9.3 kmh NW 9.2 mph14.8 kmh 29.97 in1014.9 mb - 0.00 in0.0 mm 0.01 in0.3 mm
01:30 AM 58.4°F14.7°C 44.5°F6.9°C 60% 2.3 mph ENE3.7 kmh ENE 9.2 mph14.8 kmh 29.96 in1014.6 mb - 0.00 in0.0 mm 0.01 in0.3 mm
01:25 AM 58.7°F14.8°C 44.4°F6.9°C 59% 1.2 mph ENE1.9 kmh ENE 3.5 mph5.6 kmh 29.96 in1014.6 mb - 0.00 in0.0 mm 0.01 in0.3 mm
01:20 AM 58.6°F14.8°C 44.3°F6.8°C 59% 5.8 mph ESE9.3 kmh ESE 8.1 mph13.0 kmh 29.97 in1014.9 mb - 0.00 in0.0 mm 0.01 in0.3 mm
01:15 AM 58.0°F14.4°C 44.2°F6.8°C 60% 6.9 mph SE11.1 kmh SE 11.5 mph18.5 kmh 29.97 in1014.9 mb - 0.00 in0.0 mm 0.01 in0.3 mm
01:10 AM 57.0°F13.9°C 44.5°F6.9°C 63% 4.6 mph ENE7.4 kmh ENE 11.5 mph18.5 kmh 29.97 in1014.9 mb - 0.00 in0.0 mm 0.01 in0.3 mm
01:05 AM 55.8°F13.2°C 46.9°F8.3°C 72% 3.5 mph SE5.6 kmh SE 3.5 mph5.6 kmh 29.98 in1015.2 mb - 0.00 in0.0 mm 0.01 in0.3 mm
01:00 AM 54.4°F12.4°C 47.7°F8.7°C 78% 3.5 mph SE5.6 kmh SE 5.8 mph9.3 kmh 29.97 in1014.9 mb - 0.01 in0.3 mm 0.01 in0.3 mm
12:55 AM 54.4°F12.4°C 48.4°F9.1°C 80% 2.3 mph NE3.7 kmh NE 3.5 mph5.6 kmh 29.97 in1014.9 mb - 0.01 in0.3 mm 0.01 in0.3 mm
12:50 AM 54.5°F12.5°C 48.5°F9.2°C 80% 2.3 mph W3.7 kmh W 3.5 mph5.6 kmh 29.97 in1014.9 mb - 0.01 in0.3 mm 0.01 in0.3 mm
12:45 AM 54.7°F12.6°C 48.3°F9.1°C 79% 1.2 mph SW1.9 kmh SW 3.5 mph5.6 kmh 29.97 in1014.9 mb - 0.01 in0.3 mm 0.01 in0.3 mm
12:40 AM 54.8°F12.7°C 47.7°F8.7°C 77% 3.5 mph NE5.6 kmh NE 3.5 mph5.6 kmh 29.97 in1014.9 mb - 0.01 in0.3 mm 0.01 in0.3 mm
12:35 AM 55.5°F13.1°C 48.4°F9.1°C 77% 3.5 mph ENE5.6 kmh ENE 3.5 mph5.6 kmh 29.97 in1014.9 mb - 0.01 in0.3 mm 0.01 in0.3 mm
12:30 AM 55.9°F13.3°C 47.8°F8.8°C 74% 1.2 mph SE1.9 kmh SE 3.5 mph5.6 kmh 29.97 in1014.9 mb - 0.01 in0.3 mm 0.01 in0.3 mm
12:25 AM 56.3°F13.5°C 47.8°F8.8°C 73% 2.3 mph SE3.7 kmh SE 3.5 mph5.6 kmh 29.97 in1014.9 mb - 0.02 in0.5 mm 0.01 in0.3 mm
12:20 AM 56.6°F13.7°C 47.3°F8.5°C 71% 4.6 mph N7.4 kmh N 8.1 mph13.0 kmh 29.97 in1014.9 mb - 0.02 in0.5 mm 0.01 in0.3 mm
12:15 AM 57.0°F13.9°C 46.5°F8.1°C 68% 2.3 mph S3.7 kmh S 3.5 mph5.6 kmh 29.97 in1014.9 mb - 0.02 in0.5 mm 0.01 in0.3 mm
12:10 AM 56.7°F13.7°C 45.5°F7.5°C 66% 4.6 mph ESE7.4 kmh ESE 9.2 mph14.8 kmh 29.97 in1014.9 mb - 0.02 in0.5 mm 0.01 in0.3 mm
12:05 AM 56.5°F13.6°C 46.1°F7.8°C 68% 2.3 mph ESE3.7 kmh ESE 3.5 mph5.6 kmh 29.97 in1014.9 mb - 0.02 in0.5 mm 0.01 in0.3 mm
12:00 AM 56.2°F13.4°C 46.2°F7.9°C 69% 3.5 mph ESE5.6 kmh ESE 3.5 mph5.6 kmh 29.97 in1014.9 mb - 0.01 in0.3 mm 0.01 in0.3 mm